Terminal Aerodrome Forecast
Issued by NWS

Home | Current Version | Previous Version | Text Only | Print | Product List | Glossary On
Versions: 1 2 3 4 5 6 7 8 9 10 11 12 13 14 15 16 17 18 19 20 21 22 23 24 25 26 27 28 29 30
000
FTUS41 KBUF 282300 RRA
TAFJHW
TAF
KJHW 282347Z 2900/2924 21007KT P6SM OVC035
     FM290300 19006KT P6SM BKN050 BKN060
     FM290800 19007KT P6SM BKN025 BKN060
     FM291200 17007KT P6SM BKN035 OVC050
     FM291400 17009KT 2SM -SHSN BKN040 OVC050
     FM291700 17010KT P6SM BKN080 BKN090
      AMD LTD TO CLD VIS AND WIND=

USA.gov is the U.S. government's official web portal to all federal, state and local government web resources and services.